sensor_id;sensor_type;location;lat;lon;timestamp;temperature;humidity
20345;DHT22;10330;48.816;9.278;2023-02-28T00:01:17;-0.90;99.90
20345;DHT22;10330;48.816;9.278;2023-02-28T00:03:43;-0.90;99.90
20345;DHT22;10330;48.816;9.278;2023-02-28T00:06:09;-1.00;99.90
20345;DHT22;10330;48.816;9.278;2023-02-28T00:08:37;-1.00;99.90
20345;DHT22;10330;48.816;9.278;2023-02-28T00:11:06;-1.00;99.90
20345;DHT22;10330;48.816;9.278;2023-02-28T00:13:35;-1.00;99.90
20345;DHT22;10330;48.816;9.278;2023-02-28T00:16:04;-1.00;99.90
20345;DHT22;10330;48.816;9.278;2023-02-28T00:18:33;-1.10;99.90
20345;DHT22;10330;48.816;9.278;2023-02-28T00:20:59;-1.10;99.90
20345;DHT22;10330;48.816;9.278;2023-02-28T00:23:26;-1.10;99.90
20345;DHT22;10330;48.816;9.278;2023-02-28T00:25:53;-1.10;99.90
20345;DHT22;10330;48.816;9.278;2023-02-28T00:28:19;-1.10;99.90
20345;DHT22;10330;48.816;9.278;2023-02-28T00:30:46;-1.10;99.90
20345;DHT22;10330;48.816;9.278;2023-02-28T00:33:12;-1.10;99.90
20345;DHT22;10330;48.816;9.278;2023-02-28T00:35:39;-1.00;99.90
20345;DHT22;10330;48.816;9.278;2023-02-28T00:38:05;-1.10;99.90
20345;DHT22;10330;48.816;9.278;2023-02-28T00:40:34;-1.10;99.90
20345;DHT22;10330;48.816;9.278;2023-02-28T00:43:01;-1.10;99.90
20345;DHT22;10330;48.816;9.278;2023-02-28T00:45:27;-1.10;99.90
20345;DHT22;10330;48.816;9.278;2023-02-28T00:47:53;-1.10;99.90
20345;DHT22;10330;48.816;9.278;2023-02-28T00:50:20;-1.10;99.90
20345;DHT22;10330;48.816;9.278;2023-02-28T00:52:47;-1.20;99.90
20345;DHT22;10330;48.816;9.278;2023-02-28T00:55:14;-1.20;99.90
20345;DHT22;10330;48.816;9.278;2023-02-28T00:57:40;-1.20;99.90
20345;DHT22;10330;48.816;9.278;2023-02-28T01:00:07;-1.20;99.90
20345;DHT22;10330;48.816;9.278;2023-02-28T01:02:34;-1.20;99.90
20345;DHT22;10330;48.816;9.278;2023-02-28T01:05:00;-1.20;99.90
20345;DHT22;10330;48.816;9.278;2023-02-28T01:07:29;-1.20;99.90
20345;DHT22;10330;48.816;9.278;2023-02-28T01:09:56;-1.20;99.90
20345;DHT22;10330;48.816;9.278;2023-02-28T01:12:24;-1.20;99.90
20345;DHT22;10330;48.816;9.278;2023-02-28T01:14:51;-1.20;99.90
20345;DHT22;10330;48.816;9.278;2023-02-28T01:17:17;-1.20;99.90
20345;DHT22;10330;48.816;9.278;2023-02-28T01:19:43;-1.20;99.90
20345;DHT22;10330;48.816;9.278;2023-02-28T01:22:09;-1.40;99.90
20345;DHT22;10330;48.816;9.278;2023-02-28T01:24:37;-1.30;99.90
20345;DHT22;10330;48.816;9.278;2023-02-28T01:27:03;-1.30;99.90
20345;DHT22;10330;48.816;9.278;2023-02-28T01:29:30;-1.30;99.90
20345;DHT22;10330;48.816;9.278;2023-02-28T01:31:56;-1.30;99.90
20345;DHT22;10330;48.816;9.278;2023-02-28T01:34:23;-1.30;99.90
20345;DHT22;10330;48.816;9.278;2023-02-28T01:36:51;-1.30;99.90
20345;DHT22;10330;48.816;9.278;2023-02-28T01:39:18;-1.30;99.90
20345;DHT22;10330;48.816;9.278;2023-02-28T01:41:47;-1.30;99.90
20345;DHT22;10330;48.816;9.278;2023-02-28T01:47:17;-1.40;99.90
20345;DHT22;10330;48.816;9.278;2023-02-28T01:49:44;-1.40;99.90
20345;DHT22;10330;48.816;9.278;2023-02-28T01:52:11;-1.40;99.90
20345;DHT22;10330;48.816;9.278;2023-02-28T01:54:49;-1.40;99.90
20345;DHT22;10330;48.816;9.278;2023-02-28T01:57:20;-1.40;99.90
20345;DHT22;10330;48.816;9.278;2023-02-28T01:59:54;-1.40;99.90
20345;DHT22;10330;48.816;9.278;2023-02-28T02:02:23;-1.40;99.90
20345;DHT22;10330;48.816;9.278;2023-02-28T02:04:58;-1.40;99.90
20345;DHT22;10330;48.816;9.278;2023-02-28T02:07:31;-1.40;99.90
20345;DHT22;10330;48.816;9.278;2023-02-28T02:10:27;-1.40;99.90
20345;DHT22;10330;48.816;9.278;2023-02-28T02:18:37;-1.30;99.90
20345;DHT22;10330;48.816;9.278;2023-02-28T02:21:41;-1.30;99.90
20345;DHT22;10330;48.816;9.278;2023-02-28T02:37:36;-1.30;99.90
20345;DHT22;10330;48.816;9.278;2023-02-28T02:40:31;-1.30;99.90
20345;DHT22;10330;48.816;9.278;2023-02-28T02:43:16;-1.30;99.90
20345;DHT22;10330;48.816;9.278;2023-02-28T02:45:49;-1.30;99.90
20345;DHT22;10330;48.816;9.278;2023-02-28T02:48:18;-1.30;99.90
20345;DHT22;10330;48.816;9.278;2023-02-28T02:50:50;-1.20;99.90
20345;DHT22;10330;48.816;9.278;2023-02-28T02:53:21;-1.20;99.90
20345;DHT22;10330;48.816;9.278;2023-02-28T02:55:50;-1.20;99.90
20345;DHT22;10330;48.816;9.278;2023-02-28T02:58:22;-1.20;99.90
20345;DHT22;10330;48.816;9.278;2023-02-28T03:00:56;-1.20;99.90
20345;DHT22;10330;48.816;9.278;2023-02-28T03:03:24;-1.20;99.90
20345;DHT22;10330;48.816;9.278;2023-02-28T03:05:57;-1.20;99.90
20345;DHT22;10330;48.816;9.278;2023-02-28T03:08:24;-1.10;99.90
20345;DHT22;10330;48.816;9.278;2023-02-28T03:10:52;-1.10;99.90
20345;DHT22;10330;48.816;9.278;2023-02-28T03:18:54;-1.10;99.90
20345;DHT22;10330;48.816;9.278;2023-02-28T03:27:29;-1.00;99.90
20345;DHT22;10330;48.816;9.278;2023-02-28T03:30:10;-1.00;99.90
20345;DHT22;10330;48.816;9.278;2023-02-28T03:32:58;-0.90;99.90
20345;DHT22;10330;48.816;9.278;2023-02-28T03:35:32;-0.90;99.90
20345;DHT22;10330;48.816;9.278;2023-02-28T03:38:18;-0.90;99.90
20345;DHT22;10330;48.816;9.278;2023-02-28T03:41:15;-0.90;99.90
20345;DHT22;10330;48.816;9.278;2023-02-28T03:44:06;-0.90;99.90
20345;DHT22;10330;48.816;9.278;2023-02-28T03:46:38;-0.90;99.90
20345;DHT22;10330;48.816;9.278;2023-02-28T03:49:16;-0.90;99.90
20345;DHT22;10330;48.816;9.278;2023-02-28T03:51:44;-0.90;99.90
20345;DHT22;10330;48.816;9.278;2023-02-28T03:54:16;-0.90;99.90
20345;DHT22;10330;48.816;9.278;2023-02-28T03:56:53;-0.90;99.90
20345;DHT22;10330;48.816;9.278;2023-02-28T03:59:28;-0.80;99.90
20345;DHT22;10330;48.816;9.278;2023-02-28T04:01:55;-0.90;99.90
20345;DHT22;10330;48.816;9.278;2023-02-28T04:04:24;-0.80;99.90
20345;DHT22;10330;48.816;9.278;2023-02-28T04:06:51;-0.80;99.90
20345;DHT22;10330;48.816;9.278;2023-02-28T04:09:18;-0.80;99.90
20345;DHT22;10330;48.816;9.278;2023-02-28T04:14:11;-0.80;99.90
20345;DHT22;10330;48.816;9.278;2023-02-28T04:16:40;-0.70;99.90
20345;DHT22;10330;48.816;9.278;2023-02-28T04:19:07;-0.70;99.90
20345;DHT22;10330;48.816;9.278;2023-02-28T04:21:43;-0.70;99.90
20345;DHT22;10330;48.816;9.278;2023-02-28T04:24:11;-0.70;99.90
20345;DHT22;10330;48.816;9.278;2023-02-28T04:26:42;-0.70;99.90
20345;DHT22;10330;48.816;9.278;2023-02-28T04:29:11;-0.70;99.90
20345;DHT22;10330;48.816;9.278;2023-02-28T04:31:38;-0.60;99.90
20345;DHT22;10330;48.816;9.278;2023-02-28T04:34:04;-0.70;99.90
20345;DHT22;10330;48.816;9.278;2023-02-28T04:36:31;-0.70;99.90
20345;DHT22;10330;48.816;9.278;2023-02-28T04:38:57;-0.70;99.90
20345;DHT22;10330;48.816;9.278;2023-02-28T04:41:24;-0.60;99.90
20345;DHT22;10330;48.816;9.278;2023-02-28T04:43:53;-0.70;99.90
20345;DHT22;10330;48.816;9.278;2023-02-28T04:46:25;-0.70;99.90
20345;DHT22;10330;48.816;9.278;2023-02-28T04:48:55;-0.70;99.90
20345;DHT22;10330;48.816;9.278;2023-02-28T04:51:28;-0.60;99.90
20345;DHT22;10330;48.816;9.278;2023-02-28T04:53:57;-0.70;99.90
20345;DHT22;10330;48.816;9.278;2023-02-28T04:56:23;-0.70;99.90
20345;DHT22;10330;48.816;9.278;2023-02-28T04:58:49;-0.70;99.90
20345;DHT22;10330;48.816;9.278;2023-02-28T05:01:25;-0.70;99.90
20345;DHT22;10330;48.816;9.278;2023-02-28T05:03:53;-0.60;99.90
20345;DHT22;10330;48.816;9.278;2023-02-28T05:06:20;-0.60;99.90
20345;DHT22;10330;48.816;9.278;2023-02-28T05:08:47;-0.60;99.90
20345;DHT22;10330;48.816;9.278;2023-02-28T05:11:22;-0.70;99.90
20345;DHT22;10330;48.816;9.278;2023-02-28T05:13:50;-0.70;99.90
20345;DHT22;10330;48.816;9.278;2023-02-28T05:16:17;-0.70;99.90
20345;DHT22;10330;48.816;9.278;2023-02-28T05:18:44;-0.70;99.90
20345;DHT22;10330;48.816;9.278;2023-02-28T05:21:31;-0.50;99.90
20345;DHT22;10330;48.816;9.278;2023-02-28T05:24:03;-0.60;99.90
20345;DHT22;10330;48.816;9.278;2023-02-28T05:26:30;-0.50;99.90
20345;DHT22;10330;48.816;9.278;2023-02-28T05:28:57;-0.50;99.90
20345;DHT22;10330;48.816;9.278;2023-02-28T05:31:23;-0.50;99.90
20345;DHT22;10330;48.816;9.278;2023-02-28T05:33:49;-0.50;99.90
20345;DHT22;10330;48.816;9.278;2023-02-28T05:36:16;-0.50;99.90
20345;DHT22;10330;48.816;9.278;2023-02-28T05:38:42;-0.50;99.90
20345;DHT22;10330;48.816;9.278;2023-02-28T05:41:11;-0.50;99.90
20345;DHT22;10330;48.816;9.278;2023-02-28T05:43:37;-0.60;99.90
20345;DHT22;10330;48.816;9.278;2023-02-28T05:46:05;-0.60;99.90
20345;DHT22;10330;48.816;9.278;2023-02-28T05:48:33;-0.60;99.90
20345;DHT22;10330;48.816;9.278;2023-02-28T05:50:59;-0.60;99.90
20345;DHT22;10330;48.816;9.278;2023-02-28T05:53:26;-0.60;99.90
20345;DHT22;10330;48.816;9.278;2023-02-28T05:55:52;-0.60;99.90
20345;DHT22;10330;48.816;9.278;2023-02-28T06:40:58;-0.30;99.90
20345;DHT22;10330;48.816;9.278;2023-02-28T07:04:01;-0.10;99.90
20345;DHT22;10330;48.816;9.278;2023-02-28T07:10:03;0.00;99.90
20345;DHT22;10330;48.816;9.278;2023-02-28T07:13:19;0.10;99.90
20345;DHT22;10330;48.816;9.278;2023-02-28T07:31:05;0.10;99.90
20345;DHT22;10330;48.816;9.278;2023-02-28T07:36:52;0.20;99.90
20345;DHT22;10330;48.816;9.278;2023-02-28T07:39:24;0.20;99.90
20345;DHT22;10330;48.816;9.278;2023-02-28T07:48:33;0.40;99.90
20345;DHT22;10330;48.816;9.278;2023-02-28T07:51:23;0.30;99.90
20345;DHT22;10330;48.816;9.278;2023-02-28T07:54:32;0.30;99.90
20345;DHT22;10330;48.816;9.278;2023-02-28T07:57:04;0.40;99.90
20345;DHT22;10330;48.816;9.278;2023-02-28T07:59:39;0.40;99.90
20345;DHT22;10330;48.816;9.278;2023-02-28T08:06:38;0.50;99.90
20345;DHT22;10330;48.816;9.278;2023-02-28T08:12:29;0.60;99.90
20345;DHT22;10330;48.816;9.278;2023-02-28T08:15:00;0.70;99.90
20345;DHT22;10330;48.816;9.278;2023-02-28T08:17:30;0.60;99.90
20345;DHT22;10330;48.816;9.278;2023-02-28T08:20:30;0.60;99.90
20345;DHT22;10330;48.816;9.278;2023-02-28T08:27:28;0.70;99.90
20345;DHT22;10330;48.816;9.278;2023-02-28T09:03:36;1.00;99.90
20345;DHT22;10330;48.816;9.278;2023-02-28T09:06:17;1.20;99.90
20345;DHT22;10330;48.816;9.278;2023-02-28T09:13:21;1.30;99.90
20345;DHT22;10330;48.816;9.278;2023-02-28T09:54:37;2.30;99.90
20345;DHT22;10330;48.816;9.278;2023-02-28T10:17:11;2.70;99.90
20345;DHT22;10330;48.816;9.278;2023-02-28T10:24:35;3.10;99.90
20345;DHT22;10330;48.816;9.278;2023-02-28T10:28:24;3.40;99.90
20345;DHT22;10330;48.816;9.278;2023-02-28T10:42:47;3.70;99.90
20345;DHT22;10330;48.816;9.278;2023-02-28T10:46:03;3.70;99.90
20345;DHT22;10330;48.816;9.278;2023-02-28T11:46:06;8.30;99.90
20345;DHT22;10330;48.816;9.278;2023-02-28T11:56:39;9.20;99.90
20345;DHT22;10330;48.816;9.278;2023-02-28T12:10:26;9.50;99.90
20345;DHT22;10330;48.816;9.278;2023-02-28T12:27:15;11.20;99.90
20345;DHT22;10330;48.816;9.278;2023-02-28T12:30:02;11.40;99.90
20345;DHT22;10330;48.816;9.278;2023-02-28T12:32:35;11.50;99.90
20345;DHT22;10330;48.816;9.278;2023-02-28T12:40:42;12.10;98.80
20345;DHT22;10330;48.816;9.278;2023-02-28T12:43:10;12.10;99.30
20345;DHT22;10330;48.816;9.278;2023-02-28T12:45:50;12.30;98.90
20345;DHT22;10330;48.816;9.278;2023-02-28T12:48:30;12.30;99.10
20345;DHT22;10330;48.816;9.278;2023-02-28T12:50:58;12.80;99.60
20345;DHT22;10330;48.816;9.278;2023-02-28T12:53:35;13.10;97.90
20345;DHT22;10330;48.816;9.278;2023-02-28T12:59:42;13.20;95.00
20345;DHT22;10330;48.816;9.278;2023-02-28T13:07:55;12.20;96.30
20345;DHT22;10330;48.816;9.278;2023-02-28T13:10:23;11.90;95.50
20345;DHT22;10330;48.816;9.278;2023-02-28T13:12:54;11.50;95.60
20345;DHT22;10330;48.816;9.278;2023-02-28T13:15:29;11.40;97.20
20345;DHT22;10330;48.816;9.278;2023-02-28T13:17:58;11.50;98.00
20345;DHT22;10330;48.816;9.278;2023-02-28T13:22:54;12.00;96.70
20345;DHT22;10330;48.816;9.278;2023-02-28T13:28:01;12.50;96.30
20345;DHT22;10330;48.816;9.278;2023-02-28T13:33:29;12.30;94.80
20345;DHT22;10330;48.816;9.278;2023-02-28T13:38:44;12.60;96.10
20345;DHT22;10330;48.816;9.278;2023-02-28T13:41:46;12.90;96.50
20345;DHT22;10330;48.816;9.278;2023-02-28T13:44:19;12.70;94.10
20345;DHT22;10330;48.816;9.278;2023-02-28T14:03:11;13.90;93.50
20345;DHT22;10330;48.816;9.278;2023-02-28T14:05:39;13.90;92.10
20345;DHT22;10330;48.816;9.278;2023-02-28T14:08:16;13.90;92.40
20345;DHT22;10330;48.816;9.278;2023-02-28T14:10:48;14.00;91.40
20345;DHT22;10330;48.816;9.278;2023-02-28T14:13:43;14.00;91.50
20345;DHT22;10330;48.816;9.278;2023-02-28T14:16:35;13.20;90.90
20345;DHT22;10330;48.816;9.278;2023-02-28T14:22:22;13.50;90.80
20345;DHT22;10330;48.816;9.278;2023-02-28T14:31:09;13.60;90.00
20345;DHT22;10330;48.816;9.278;2023-02-28T14:36:48;13.30;91.30
20345;DHT22;10330;48.816;9.278;2023-02-28T14:39:20;12.90;90.50
20345;DHT22;10330;48.816;9.278;2023-02-28T14:41:47;12.70;91.00
20345;DHT22;10330;48.816;9.278;2023-02-28T14:46:41;13.30;91.00
20345;DHT22;10330;48.816;9.278;2023-02-28T14:49:21;13.20;91.20
20345;DHT22;10330;48.816;9.278;2023-02-28T14:54:30;12.90;90.90
20345;DHT22;10330;48.816;9.278;2023-02-28T14:56:56;13.10;91.50
20345;DHT22;10330;48.816;9.278;2023-02-28T14:59:29;13.20;91.40
20345;DHT22;10330;48.816;9.278;2023-02-28T15:02:21;13.10;90.70
20345;DHT22;10330;48.816;9.278;2023-02-28T15:05:00;13.00;91.20
20345;DHT22;10330;48.816;9.278;2023-02-28T15:07:27;13.00;91.20
20345;DHT22;10330;48.816;9.278;2023-02-28T15:10:09;12.80;91.50
20345;DHT22;10330;48.816;9.278;2023-02-28T15:12:37;12.60;91.70
20345;DHT22;10330;48.816;9.278;2023-02-28T15:15:06;12.00;91.50
20345;DHT22;10330;48.816;9.278;2023-02-28T15:17:36;11.60;92.50
20345;DHT22;10330;48.816;9.278;2023-02-28T15:20:03;11.60;93.20
20345;DHT22;10330;48.816;9.278;2023-02-28T15:22:35;11.40;93.10
20345;DHT22;10330;48.816;9.278;2023-02-28T15:25:02;11.20;93.50
20345;DHT22;10330;48.816;9.278;2023-02-28T15:27:32;10.80;93.70
20345;DHT22;10330;48.816;9.278;2023-02-28T15:30:04;10.60;94.10
20345;DHT22;10330;48.816;9.278;2023-02-28T15:32:36;10.50;95.10
20345;DHT22;10330;48.816;9.278;2023-02-28T15:40:45;10.00;96.10
20345;DHT22;10330;48.816;9.278;2023-02-28T15:43:27;9.90;96.60
20345;DHT22;10330;48.816;9.278;2023-02-28T15:46:03;9.80;97.00
20345;DHT22;10330;48.816;9.278;2023-02-28T15:48:43;9.30;97.00
20345;DHT22;10330;48.816;9.278;2023-02-28T15:51:30;9.20;97.70
20345;DHT22;10330;48.816;9.278;2023-02-28T15:54:07;9.10;97.90
20345;DHT22;10330;48.816;9.278;2023-02-28T15:56:49;8.80;98.70
20345;DHT22;10330;48.816;9.278;2023-02-28T15:59:26;8.70;99.90
20345;DHT22;10330;48.816;9.278;2023-02-28T16:04:36;8.40;99.90
20345;DHT22;10330;48.816;9.278;2023-02-28T16:07:04;8.30;99.90
20345;DHT22;10330;48.816;9.278;2023-02-28T16:09:31;8.00;99.90
20345;DHT22;10330;48.816;9.278;2023-02-28T16:12:02;7.90;99.90
20345;DHT22;10330;48.816;9.278;2023-02-28T16:14:29;7.70;99.90
20345;DHT22;10330;48.816;9.278;2023-02-28T16:17:03;7.60;99.90
20345;DHT22;10330;48.816;9.278;2023-02-28T16:19:30;7.50;99.90
20345;DHT22;10330;48.816;9.278;2023-02-28T16:21:57;7.30;99.90
20345;DHT22;10330;48.816;9.278;2023-02-28T16:24:23;7.50;99.90
20345;DHT22;10330;48.816;9.278;2023-02-28T16:26:51;7.20;99.90
20345;DHT22;10330;48.816;9.278;2023-02-28T16:29:27;7.10;99.90
20345;DHT22;10330;48.816;9.278;2023-02-28T16:31:53;7.10;99.90
20345;DHT22;10330;48.816;9.278;2023-02-28T16:34:20;6.90;99.90
20345;DHT22;10330;48.816;9.278;2023-02-28T16:36:48;6.80;99.90
20345;DHT22;10330;48.816;9.278;2023-02-28T16:39:14;6.60;99.90
20345;DHT22;10330;48.816;9.278;2023-02-28T16:41:44;6.60;99.90
20345;DHT22;10330;48.816;9.278;2023-02-28T16:44:27;6.50;99.90
20345;DHT22;10330;48.816;9.278;2023-02-28T16:46:54;6.40;99.90
20345;DHT22;10330;48.816;9.278;2023-02-28T16:49:20;6.40;99.90
20345;DHT22;10330;48.816;9.278;2023-02-28T16:51:46;6.20;99.90
20345;DHT22;10330;48.816;9.278;2023-02-28T16:54:13;6.10;99.90
20345;DHT22;10330;48.816;9.278;2023-02-28T16:56:43;6.00;99.90
20345;DHT22;10330;48.816;9.278;2023-02-28T16:59:10;5.90;99.90
20345;DHT22;10330;48.816;9.278;2023-02-28T17:01:37;5.70;99.90
20345;DHT22;10330;48.816;9.278;2023-02-28T17:04:03;5.80;99.90
20345;DHT22;10330;48.816;9.278;2023-02-28T17:06:30;5.60;99.90
20345;DHT22;10330;48.816;9.278;2023-02-28T17:08:57;5.50;99.90
20345;DHT22;10330;48.816;9.278;2023-02-28T17:11:25;5.40;99.90
20345;DHT22;10330;48.816;9.278;2023-02-28T17:13:53;5.30;99.90
20345;DHT22;10330;48.816;9.278;2023-02-28T17:16:32;5.30;99.90
20345;DHT22;10330;48.816;9.278;2023-02-28T17:19:01;5.20;99.90
20345;DHT22;10330;48.816;9.278;2023-02-28T17:21:28;5.30;99.90
20345;DHT22;10330;48.816;9.278;2023-02-28T17:23:55;5.10;99.90
20345;DHT22;10330;48.816;9.278;2023-02-28T17:26:22;5.00;99.90
20345;DHT22;10330;48.816;9.278;2023-02-28T17:28:55;5.00;99.90
20345;DHT22;10330;48.816;9.278;2023-02-28T17:31:26;5.00;99.90
20345;DHT22;10330;48.816;9.278;2023-02-28T17:33:53;4.90;99.90
20345;DHT22;10330;48.816;9.278;2023-02-28T17:36:25;4.90;99.90
20345;DHT22;10330;48.816;9.278;2023-02-28T17:38:53;4.80;99.90
20345;DHT22;10330;48.816;9.278;2023-02-28T17:41:21;4.70;99.90
20345;DHT22;10330;48.816;9.278;2023-02-28T17:43:47;4.70;99.90
20345;DHT22;10330;48.816;9.278;2023-02-28T17:46:21;4.50;99.90
20345;DHT22;10330;48.816;9.278;2023-02-28T17:48:52;4.60;99.90
20345;DHT22;10330;48.816;9.278;2023-02-28T17:51:20;4.50;99.90
20345;DHT22;10330;48.816;9.278;2023-02-28T17:53:51;4.50;99.90
20345;DHT22;10330;48.816;9.278;2023-02-28T17:56:22;4.50;99.90
20345;DHT22;10330;48.816;9.278;2023-02-28T17:58:50;4.40;99.90
20345;DHT22;10330;48.816;9.278;2023-02-28T18:01:17;4.30;99.90
20345;DHT22;10330;48.816;9.278;2023-02-28T18:03:43;4.30;99.90
20345;DHT22;10330;48.816;9.278;2023-02-28T18:06:25;4.20;99.90
20345;DHT22;10330;48.816;9.278;2023-02-28T18:08:53;4.20;99.90
20345;DHT22;10330;48.816;9.278;2023-02-28T18:11:21;4.10;99.90
20345;DHT22;10330;48.816;9.278;2023-02-28T18:13:51;4.00;99.90
20345;DHT22;10330;48.816;9.278;2023-02-28T18:16:19;4.00;99.90
20345;DHT22;10330;48.816;9.278;2023-02-28T18:18:46;4.00;99.90
20345;DHT22;10330;48.816;9.278;2023-02-28T18:21:14;3.90;99.90
20345;DHT22;10330;48.816;9.278;2023-02-28T18:23:42;3.90;99.90
20345;DHT22;10330;48.816;9.278;2023-02-28T18:26:16;3.80;99.90
20345;DHT22;10330;48.816;9.278;2023-02-28T18:28:43;3.90;99.90
20345;DHT22;10330;48.816;9.278;2023-02-28T18:31:12;3.70;99.90
20345;DHT22;10330;48.816;9.278;2023-02-28T18:33:40;3.70;99.90
20345;DHT22;10330;48.816;9.278;2023-02-28T18:36:10;3.60;99.90
20345;DHT22;10330;48.816;9.278;2023-02-28T18:38:36;3.60;99.90
20345;DHT22;10330;48.816;9.278;2023-02-28T18:41:04;3.60;99.90
20345;DHT22;10330;48.816;9.278;2023-02-28T18:43:32;3.60;99.90
20345;DHT22;10330;48.816;9.278;2023-02-28T18:46:04;3.60;99.90
20345;DHT22;10330;48.816;9.278;2023-02-28T18:48:30;3.50;99.90
20345;DHT22;10330;48.816;9.278;2023-02-28T18:50:56;3.50;99.90
20345;DHT22;10330;48.816;9.278;2023-02-28T18:53:23;3.50;99.90
20345;DHT22;10330;48.816;9.278;2023-02-28T18:55:49;3.50;99.90
20345;DHT22;10330;48.816;9.278;2023-02-28T18:58:15;3.40;99.90
20345;DHT22;10330;48.816;9.278;2023-02-28T19:00:41;3.30;99.90
20345;DHT22;10330;48.816;9.278;2023-02-28T19:03:08;3.40;99.90
20345;DHT22;10330;48.816;9.278;2023-02-28T19:05:36;3.30;99.90
20345;DHT22;10330;48.816;9.278;2023-02-28T19:08:02;3.30;99.90
20345;DHT22;10330;48.816;9.278;2023-02-28T19:10:29;3.30;99.90
20345;DHT22;10330;48.816;9.278;2023-02-28T19:12:56;3.30;99.90
20345;DHT22;10330;48.816;9.278;2023-02-28T19:15:25;3.20;99.90
20345;DHT22;10330;48.816;9.278;2023-02-28T19:17:57;3.30;99.90
20345;DHT22;10330;48.816;9.278;2023-02-28T19:20:26;3.20;99.90
20345;DHT22;10330;48.816;9.278;2023-02-28T19:22:53;3.20;99.90
20345;DHT22;10330;48.816;9.278;2023-02-28T19:25:19;3.10;99.90
20345;DHT22;10330;48.816;9.278;2023-02-28T19:27:45;3.10;99.90
20345;DHT22;10330;48.816;9.278;2023-02-28T19:30:12;3.00;99.90
20345;DHT22;10330;48.816;9.278;2023-02-28T19:32:38;3.00;99.90
20345;DHT22;10330;48.816;9.278;2023-02-28T19:35:05;2.90;99.90
20345;DHT22;10330;48.816;9.278;2023-02-28T19:37:31;2.90;99.90
20345;DHT22;10330;48.816;9.278;2023-02-28T19:39:57;2.90;99.90
20345;DHT22;10330;48.816;9.278;2023-02-28T19:42:24;2.90;99.90
20345;DHT22;10330;48.816;9.278;2023-02-28T19:44:56;2.90;99.90
20345;DHT22;10330;48.816;9.278;2023-02-28T19:47:23;2.90;99.90
20345;DHT22;10330;48.816;9.278;2023-02-28T19:49:49;2.80;99.90
20345;DHT22;10330;48.816;9.278;2023-02-28T19:52:23;2.80;99.90
20345;DHT22;10330;48.816;9.278;2023-02-28T19:54:50;2.80;99.90
20345;DHT22;10330;48.816;9.278;2023-02-28T19:57:19;2.70;99.90
20345;DHT22;10330;48.816;9.278;2023-02-28T19:59:46;2.70;99.90
20345;DHT22;10330;48.816;9.278;2023-02-28T20:02:14;2.70;99.90
20345;DHT22;10330;48.816;9.278;2023-02-28T20:04:40;2.70;99.90
20345;DHT22;10330;48.816;9.278;2023-02-28T20:07:07;2.70;99.90
20345;DHT22;10330;48.816;9.278;2023-02-28T20:09:34;2.60;99.90
20345;DHT22;10330;48.816;9.278;2023-02-28T20:12:00;2.60;99.90
20345;DHT22;10330;48.816;9.278;2023-02-28T20:14:26;2.60;99.90
20345;DHT22;10330;48.816;9.278;2023-02-28T20:16:52;2.60;99.90
20345;DHT22;10330;48.816;9.278;2023-02-28T20:19:19;2.50;99.90
20345;DHT22;10330;48.816;9.278;2023-02-28T20:21:45;2.50;99.90
20345;DHT22;10330;48.816;9.278;2023-02-28T20:24:11;2.50;99.90
20345;DHT22;10330;48.816;9.278;2023-02-28T20:26:38;2.40;99.90
20345;DHT22;10330;48.816;9.278;2023-02-28T20:29:05;2.30;99.90
20345;DHT22;10330;48.816;9.278;2023-02-28T20:31:33;2.30;99.90
20345;DHT22;10330;48.816;9.278;2023-02-28T20:34:03;2.30;99.90
20345;DHT22;10330;48.816;9.278;2023-02-28T20:36:30;2.20;99.90
20345;DHT22;10330;48.816;9.278;2023-02-28T20:38:56;2.20;99.90
20345;DHT22;10330;48.816;9.278;2023-02-28T20:41:22;2.20;99.90
20345;DHT22;10330;48.816;9.278;2023-02-28T20:43:56;2.20;99.90
20345;DHT22;10330;48.816;9.278;2023-02-28T20:46:29;2.10;99.90
20345;DHT22;10330;48.816;9.278;2023-02-28T20:48:56;2.20;99.90
20345;DHT22;10330;48.816;9.278;2023-02-28T20:51:23;2.10;99.90
20345;DHT22;10330;48.816;9.278;2023-02-28T20:53:49;2.00;99.90
20345;DHT22;10330;48.816;9.278;2023-02-28T20:56:17;1.90;99.90
20345;DHT22;10330;48.816;9.278;2023-02-28T20:58:46;2.00;99.90
20345;DHT22;10330;48.816;9.278;2023-02-28T21:01:15;2.00;99.90
20345;DHT22;10330;48.816;9.278;2023-02-28T21:03:46;2.00;99.90
20345;DHT22;10330;48.816;9.278;2023-02-28T21:06:14;1.90;99.90
20345;DHT22;10330;48.816;9.278;2023-02-28T21:08:44;2.00;99.90
20345;DHT22;10330;48.816;9.278;2023-02-28T21:11:13;1.90;99.90
20345;DHT22;10330;48.816;9.278;2023-02-28T21:13:41;1.90;99.90
20345;DHT22;10330;48.816;9.278;2023-02-28T21:16:10;1.80;99.90
20345;DHT22;10330;48.816;9.278;2023-02-28T21:18:37;1.70;99.90
20345;DHT22;10330;48.816;9.278;2023-02-28T21:26:55;1.80;99.90
20345;DHT22;10330;48.816;9.278;2023-02-28T21:30:04;1.80;99.90
20345;DHT22;10330;48.816;9.278;2023-02-28T22:07:07;1.30;99.90
20345;DHT22;10330;48.816;9.278;2023-02-28T22:16:36;1.20;99.90
20345;DHT22;10330;48.816;9.278;2023-02-28T22:19:06;1.30;99.90
20345;DHT22;10330;48.816;9.278;2023-02-28T22:21:34;1.30;99.90
20345;DHT22;10330;48.816;9.278;2023-02-28T22:24:02;1.30;99.90
20345;DHT22;10330;48.816;9.278;2023-02-28T22:26:32;1.30;99.90
20345;DHT22;10330;48.816;9.278;2023-02-28T22:28:58;1.20;99.90
20345;DHT22;10330;48.816;9.278;2023-02-28T22:31:30;1.20;99.90
20345;DHT22;10330;48.816;9.278;2023-02-28T22:33:59;1.10;99.90
20345;DHT22;10330;48.816;9.278;2023-02-28T22:36:27;1.10;99.90
20345;DHT22;10330;48.816;9.278;2023-02-28T22:38:56;1.10;99.90
20345;DHT22;10330;48.816;9.278;2023-02-28T22:41:32;1.10;99.90
20345;DHT22;10330;48.816;9.278;2023-02-28T22:44:00;1.10;99.90
20345;DHT22;10330;48.816;9.278;2023-02-28T22:46:29;1.10;99.90
20345;DHT22;10330;48.816;9.278;2023-02-28T22:48:58;1.10;99.90
20345;DHT22;10330;48.816;9.278;2023-02-28T22:51:28;1.10;99.90
20345;DHT22;10330;48.816;9.278;2023-02-28T22:53:55;1.20;99.90
20345;DHT22;10330;48.816;9.278;2023-02-28T22:56:24;1.10;99.90
20345;DHT22;10330;48.816;9.278;2023-02-28T22:58:53;1.20;99.90
20345;DHT22;10330;48.816;9.278;2023-02-28T23:01:22;1.10;99.90
20345;DHT22;10330;48.816;9.278;2023-02-28T23:03:49;1.10;99.90
20345;DHT22;10330;48.816;9.278;2023-02-28T23:08:47;1.10;99.90
20345;DHT22;10330;48.816;9.278;2023-02-28T23:11:35;1.10;99.90
20345;DHT22;10330;48.816;9.278;2023-02-28T23:14:02;1.10;99.90
20345;DHT22;10330;48.816;9.278;2023-02-28T23:16:38;1.10;99.90
20345;DHT22;10330;48.816;9.278;2023-02-28T23:19:08;1.00;99.90
20345;DHT22;10330;48.816;9.278;2023-02-28T23:21:34;1.00;99.90
20345;DHT22;10330;48.816;9.278;2023-02-28T23:24:02;1.00;99.90
20345;DHT22;10330;48.816;9.278;2023-02-28T23:26:30;0.90;99.90
20345;DHT22;10330;48.816;9.278;2023-02-28T23:28:57;0.90;99.90
20345;DHT22;10330;48.816;9.278;2023-02-28T23:31:24;1.00;99.90
20345;DHT22;10330;48.816;9.278;2023-02-28T23:33:50;0.90;99.90
20345;DHT22;10330;48.816;9.278;2023-02-28T23:36:16;0.80;99.90
20345;DHT22;10330;48.816;9.278;2023-02-28T23:38:46;0.80;99.90
20345;DHT22;10330;48.816;9.278;2023-02-28T23:41:16;0.70;99.90
20345;DHT22;10330;48.816;9.278;2023-02-28T23:43:42;0.80;99.90
20345;DHT22;10330;48.816;9.278;2023-02-28T23:46:11;0.70;99.90